Lewistown, Maryland
Current Conditions -  °F | °C
As of 10:55 AM on Thursday 23 Oct 2014 (Local Time) from KFDK Reporting Station
Scattered Clouds Scattered Clouds  
Wind Chill: 63°   Ceiling: Unl
Heat Index: 63°   Visibility: 10mi
Dew Point: 43°   Wind: 15mph
Humidity: 48%   Direction: 320°NW
Pressure: 29.94"   Gusts: 20mph
Location:  39.4393°N, 77.3428°W
Report Text: KFDK 231455Z 32013G17KT 10SM SCT042 17/06 A2994
Loading
Personal Weather Stations






























Interactive Weather Map
Tropical Storm Tracking
New forecast layout! Learn more

10-Day Weather Forecast

Advertisements
Track Severe Weather on mobile